sensor_id;sensor_type;location;lat;lon;timestamp;pressure;altitude;pressure_sealevel;temperature;humidity
60015;BME280;45867;52.480;6.056;2023-05-23T00:01:24;101703.28;;;13.68;100.00
60015;BME280;45867;52.480;6.056;2023-05-23T00:03:50;101709.13;;;13.60;100.00
60015;BME280;45867;52.480;6.056;2023-05-23T00:06:18;101712.88;;;13.59;100.00
60015;BME280;45867;52.480;6.056;2023-05-23T00:08:45;101718.97;;;13.54;100.00
60015;BME280;45867;52.480;6.056;2023-05-23T00:11:10;101700.31;;;13.39;100.00
60015;BME280;45867;52.480;6.056;2023-05-23T00:13:37;101712.84;;;13.44;100.00
60015;BME280;45867;52.480;6.056;2023-05-23T00:16:04;101720.25;;;13.26;100.00
60015;BME280;45867;52.480;6.056;2023-05-23T00:18:29;101707.75;;;13.27;100.00
60015;BME280;45867;52.480;6.056;2023-05-23T00:20:55;101712.75;;;13.18;100.00
60015;BME280;45867;52.480;6.056;2023-05-23T00:23:21;101699.41;;;13.08;100.00
60015;BME280;45867;52.480;6.056;2023-05-23T00:25:49;101717.25;;;13.07;100.00
60015;BME280;45867;52.480;6.056;2023-05-23T00:28:17;101727.03;;;12.97;100.00
60015;BME280;45867;52.480;6.056;2023-05-23T00:30:42;101711.31;;;12.95;100.00
60015;BME280;45867;52.480;6.056;2023-05-23T00:33:07;101719.06;;;12.97;100.00
60015;BME280;45867;52.480;6.056;2023-05-23T00:35:33;101713.16;;;12.89;100.00
60015;BME280;45867;52.480;6.056;2023-05-23T00:37:58;101723.25;;;12.87;100.00
60015;BME280;45867;52.480;6.056;2023-05-23T00:40:23;101717.13;;;12.87;100.00
60015;BME280;45867;52.480;6.056;2023-05-23T00:42:49;101720.53;;;12.72;100.00
60015;BME280;45867;52.480;6.056;2023-05-23T00:45:17;101727.94;;;12.65;100.00
60015;BME280;45867;52.480;6.056;2023-05-23T00:47:43;101720.78;;;12.71;100.00
60015;BME280;45867;52.480;6.056;2023-05-23T00:50:14;101709.06;;;12.66;100.00
60015;BME280;45867;52.480;6.056;2023-05-23T00:52:40;101717.84;;;12.67;100.00
60015;BME280;45867;52.480;6.056;2023-05-23T00:55:07;101708.78;;;12.63;100.00
60015;BME280;45867;52.480;6.056;2023-05-23T00:57:32;101718.91;;;12.71;100.00
60015;BME280;45867;52.480;6.056;2023-05-23T00:59:59;101707.97;;;12.62;100.00
60015;BME280;45867;52.480;6.056;2023-05-23T01:02:25;101724.75;;;12.68;100.00
60015;BME280;45867;52.480;6.056;2023-05-23T01:04:52;101707.47;;;12.65;100.00
60015;BME280;45867;52.480;6.056;2023-05-23T01:07:20;101726.09;;;12.71;100.00
60015;BME280;45867;52.480;6.056;2023-05-23T01:09:45;101713.88;;;12.70;100.00
60015;BME280;45867;52.480;6.056;2023-05-23T01:17:34;101711.25;;;12.75;100.00
60015;BME280;45867;52.480;6.056;2023-05-23T01:20:10;101708.81;;;12.68;100.00
60015;BME280;45867;52.480;6.056;2023-05-23T01:28:14;101713.25;;;12.57;100.00
60015;BME280;45867;52.480;6.056;2023-05-23T01:30:41;101708.28;;;12.66;100.00
60015;BME280;45867;52.480;6.056;2023-05-23T01:33:09;101701.06;;;12.61;100.00
60015;BME280;45867;52.480;6.056;2023-05-23T01:35:36;101704.78;;;12.65;100.00
60015;BME280;45867;52.480;6.056;2023-05-23T01:38:01;101706.66;;;12.65;100.00
60015;BME280;45867;52.480;6.056;2023-05-23T01:40:26;101707.22;;;12.67;100.00
60015;BME280;45867;52.480;6.056;2023-05-23T01:42:53;101715.19;;;12.67;100.00
60015;BME280;45867;52.480;6.056;2023-05-23T01:45:20;101711.97;;;12.65;100.00
60015;BME280;45867;52.480;6.056;2023-05-23T01:47:48;101709.25;;;12.55;100.00
60015;BME280;45867;52.480;6.056;2023-05-23T01:50:15;101713.25;;;12.52;100.00
60015;BME280;45867;52.480;6.056;2023-05-23T01:52:41;101723.13;;;12.62;100.00
60015;BME280;45867;52.480;6.056;2023-05-23T01:55:07;101718.59;;;12.57;100.00
60015;BME280;45867;52.480;6.056;2023-05-23T01:57:37;101708.44;;;12.49;100.00
60015;BME280;45867;52.480;6.056;2023-05-23T02:00:05;101709.53;;;12.53;100.00
60015;BME280;45867;52.480;6.056;2023-05-23T02:02:34;101717.75;;;12.52;100.00
60015;BME280;45867;52.480;6.056;2023-05-23T02:04:59;101717.00;;;12.56;100.00
60015;BME280;45867;52.480;6.056;2023-05-23T02:07:25;101719.94;;;12.60;100.00
60015;BME280;45867;52.480;6.056;2023-05-23T02:09:50;101713.56;;;12.61;100.00
60015;BME280;45867;52.480;6.056;2023-05-23T02:12:15;101728.22;;;12.63;100.00
60015;BME280;45867;52.480;6.056;2023-05-23T02:14:41;101723.69;;;12.64;100.00
60015;BME280;45867;52.480;6.056;2023-05-23T02:17:07;101727.69;;;12.66;100.00
60015;BME280;45867;52.480;6.056;2023-05-23T02:19:34;101729.56;;;12.66;100.00
60015;BME280;45867;52.480;6.056;2023-05-23T02:22:00;101734.59;;;12.68;100.00
60015;BME280;45867;52.480;6.056;2023-05-23T02:24:25;101742.03;;;12.60;100.00
60015;BME280;45867;52.480;6.056;2023-05-23T02:26:54;101743.34;;;12.63;100.00
60015;BME280;45867;52.480;6.056;2023-05-23T02:29:19;101749.69;;;12.57;100.00
60015;BME280;45867;52.480;6.056;2023-05-23T02:31:45;101755.31;;;12.60;100.00
60015;BME280;45867;52.480;6.056;2023-05-23T02:34:10;101754.19;;;12.51;100.00
60015;BME280;45867;52.480;6.056;2023-05-23T02:36:35;101754.41;;;12.44;100.00
60015;BME280;45867;52.480;6.056;2023-05-23T02:39:04;101759.97;;;12.43;100.00
60015;BME280;45867;52.480;6.056;2023-05-23T02:41:29;101761.13;;;12.52;100.00
60015;BME280;45867;52.480;6.056;2023-05-23T02:43:55;101758.94;;;12.49;100.00
60015;BME280;45867;52.480;6.056;2023-05-23T02:46:20;101766.41;;;12.47;100.00
60015;BME280;45867;52.480;6.056;2023-05-23T02:48:45;101766.91;;;12.44;100.00
60015;BME280;45867;52.480;6.056;2023-05-23T02:51:11;101771.94;;;12.46;100.00
60015;BME280;45867;52.480;6.056;2023-05-23T02:53:38;101766.34;;;12.42;100.00
60015;BME280;45867;52.480;6.056;2023-05-23T02:56:03;101774.94;;;12.54;100.00
60015;BME280;45867;52.480;6.056;2023-05-23T02:58:28;101767.16;;;12.42;100.00
60015;BME280;45867;52.480;6.056;2023-05-23T03:00:54;101772.28;;;12.54;100.00
60015;BME280;45867;52.480;6.056;2023-05-23T03:03:19;101777.56;;;12.49;100.00
60015;BME280;45867;52.480;6.056;2023-05-23T03:05:45;101781.28;;;12.48;100.00
60015;BME280;45867;52.480;6.056;2023-05-23T03:08:10;101772.22;;;12.44;100.00
60015;BME280;45867;52.480;6.056;2023-05-23T03:10:36;101774.06;;;12.43;100.00
60015;BME280;45867;52.480;6.056;2023-05-23T03:13:01;101780.22;;;12.49;100.00
60015;BME280;45867;52.480;6.056;2023-05-23T03:15:27;101781.53;;;12.47;100.00
60015;BME280;45867;52.480;6.056;2023-05-23T03:17:52;101782.13;;;12.54;100.00
60015;BME280;45867;52.480;6.056;2023-05-23T03:20:18;101779.22;;;12.55;100.00
60015;BME280;45867;52.480;6.056;2023-05-23T03:22:43;101789.53;;;12.52;100.00
60015;BME280;45867;52.480;6.056;2023-05-23T03:25:10;101789.22;;;12.43;100.00
60015;BME280;45867;52.480;6.056;2023-05-23T03:27:35;101796.94;;;12.44;100.00
60015;BME280;45867;52.480;6.056;2023-05-23T03:30:04;101795.88;;;12.46;100.00
60015;BME280;45867;52.480;6.056;2023-05-23T03:32:30;101797.19;;;12.43;100.00
60015;BME280;45867;52.480;6.056;2023-05-23T03:34:55;101806.47;;;12.40;100.00
60015;BME280;45867;52.480;6.056;2023-05-23T03:37:21;101804.31;;;12.37;100.00
60015;BME280;45867;52.480;6.056;2023-05-23T03:39:46;101805.06;;;12.28;100.00
60015;BME280;45867;52.480;6.056;2023-05-23T03:42:11;101805.59;;;12.30;100.00
60015;BME280;45867;52.480;6.056;2023-05-23T03:44:37;101802.13;;;12.29;100.00
60015;BME280;45867;52.480;6.056;2023-05-23T03:47:02;101817.84;;;12.31;100.00
60015;BME280;45867;52.480;6.056;2023-05-23T03:49:28;101809.88;;;12.31;100.00
60015;BME280;45867;52.480;6.056;2023-05-23T03:51:53;101824.41;;;12.23;100.00
60015;BME280;45867;52.480;6.056;2023-05-23T03:54:18;101827.81;;;12.18;100.00
60015;BME280;45867;52.480;6.056;2023-05-23T03:56:44;101833.88;;;12.14;100.00
60015;BME280;45867;52.480;6.056;2023-05-23T03:59:09;101832.78;;;12.10;100.00
60015;BME280;45867;52.480;6.056;2023-05-23T04:01:34;101842.84;;;12.08;100.00
60015;BME280;45867;52.480;6.056;2023-05-23T04:04:00;101844.94;;;12.01;100.00
60015;BME280;45867;52.480;6.056;2023-05-23T04:06:26;101847.19;;;11.92;100.00
60015;BME280;45867;52.480;6.056;2023-05-23T04:08:54;101840.91;;;11.98;100.00
60015;BME280;45867;52.480;6.056;2023-05-23T04:11:19;101864.31;;;12.01;100.00
60015;BME280;45867;52.480;6.056;2023-05-23T04:13:46;101858.34;;;11.89;100.00
60015;BME280;45867;52.480;6.056;2023-05-23T04:16:11;101853.19;;;11.82;100.00
60015;BME280;45867;52.480;6.056;2023-05-23T04:18:36;101864.38;;;11.84;100.00
60015;BME280;45867;52.480;6.056;2023-05-23T04:21:03;101870.06;;;11.93;100.00
60015;BME280;45867;52.480;6.056;2023-05-23T04:23:28;101868.44;;;11.87;100.00
60015;BME280;45867;52.480;6.056;2023-05-23T04:25:54;101881.13;;;11.85;100.00
60015;BME280;45867;52.480;6.056;2023-05-23T04:28:21;101883.94;;;11.78;100.00
60015;BME280;45867;52.480;6.056;2023-05-23T04:30:47;101877.84;;;11.77;100.00
60015;BME280;45867;52.480;6.056;2023-05-23T04:33:14;101881.47;;;11.71;100.00
60015;BME280;45867;52.480;6.056;2023-05-23T04:35:39;101886.50;;;11.68;100.00
60015;BME280;45867;52.480;6.056;2023-05-23T04:38:05;101883.00;;;11.67;100.00
60015;BME280;45867;52.480;6.056;2023-05-23T04:40:30;101894.19;;;11.69;100.00
60015;BME280;45867;52.480;6.056;2023-05-23T04:42:56;101887.78;;;11.65;100.00
60015;BME280;45867;52.480;6.056;2023-05-23T04:45:24;101903.22;;;11.68;100.00
60015;BME280;45867;52.480;6.056;2023-05-23T04:47:53;101905.97;;;11.56;100.00
60015;BME280;45867;52.480;6.056;2023-05-23T04:50:19;101914.50;;;11.59;100.00
60015;BME280;45867;52.480;6.056;2023-05-23T04:52:47;101912.13;;;11.57;100.00
60015;BME280;45867;52.480;6.056;2023-05-23T04:55:12;101915.78;;;11.56;100.00
60015;BME280;45867;52.480;6.056;2023-05-23T04:57:37;101914.69;;;11.52;100.00
60015;BME280;45867;52.480;6.056;2023-05-23T05:00:04;101926.34;;;11.51;100.00
60015;BME280;45867;52.480;6.056;2023-05-23T05:02:35;101936.00;;;11.40;100.00
60015;BME280;45867;52.480;6.056;2023-05-23T05:05:01;101937.47;;;11.48;100.00
60015;BME280;45867;52.480;6.056;2023-05-23T05:07:26;101937.38;;;11.43;100.00
60015;BME280;45867;52.480;6.056;2023-05-23T05:09:53;101948.56;;;11.45;100.00
60015;BME280;45867;52.480;6.056;2023-05-23T05:12:18;101943.81;;;11.47;100.00
60015;BME280;45867;52.480;6.056;2023-05-23T05:14:44;101939.00;;;11.44;100.00
60015;BME280;45867;52.480;6.056;2023-05-23T05:17:09;101935.63;;;11.31;100.00
60015;BME280;45867;52.480;6.056;2023-05-23T05:19:34;101941.53;;;11.17;100.00
60015;BME280;45867;52.480;6.056;2023-05-23T05:22:00;101954.47;;;11.30;100.00
60015;BME280;45867;52.480;6.056;2023-05-23T05:24:26;101958.00;;;11.36;100.00
60015;BME280;45867;52.480;6.056;2023-05-23T05:26:52;101967.63;;;11.42;100.00
60015;BME280;45867;52.480;6.056;2023-05-23T05:29:18;101963.22;;;11.30;100.00
60015;BME280;45867;52.480;6.056;2023-05-23T05:31:43;101967.41;;;11.26;100.00
60015;BME280;45867;52.480;6.056;2023-05-23T05:34:09;101995.06;;;11.30;100.00
60015;BME280;45867;52.480;6.056;2023-05-23T05:36:35;101994.09;;;11.37;100.00
60015;BME280;45867;52.480;6.056;2023-05-23T05:39:00;102003.19;;;11.24;100.00
60015;BME280;45867;52.480;6.056;2023-05-23T05:41:26;102001.34;;;11.24;100.00
60015;BME280;45867;52.480;6.056;2023-05-23T05:43:51;102007.69;;;11.23;100.00
60015;BME280;45867;52.480;6.056;2023-05-23T05:46:17;102010.41;;;11.28;100.00
60015;BME280;45867;52.480;6.056;2023-05-23T05:48:42;102011.72;;;11.26;100.00
60015;BME280;45867;52.480;6.056;2023-05-23T05:51:07;102026.03;;;11.25;100.00
60015;BME280;45867;52.480;6.056;2023-05-23T05:53:33;102028.44;;;11.26;100.00
60015;BME280;45867;52.480;6.056;2023-05-23T05:55:58;102035.34;;;11.27;100.00
60015;BME280;45867;52.480;6.056;2023-05-23T05:58:24;102031.66;;;11.28;100.00
60015;BME280;45867;52.480;6.056;2023-05-23T06:00:49;102039.38;;;11.30;100.00
60015;BME280;45867;52.480;6.056;2023-05-23T06:03:14;102043.22;;;11.39;100.00
60015;BME280;45867;52.480;6.056;2023-05-23T06:05:42;102035.19;;;11.34;100.00
60015;BME280;45867;52.480;6.056;2023-05-23T06:08:08;102062.69;;;11.45;100.00
60015;BME280;45867;52.480;6.056;2023-05-23T06:10:33;102054.09;;;11.38;100.00
60015;BME280;45867;52.480;6.056;2023-05-23T06:13:01;102060.03;;;11.28;100.00
60015;BME280;45867;52.480;6.056;2023-05-23T06:15:26;102077.63;;;11.17;100.00
60015;BME280;45867;52.480;6.056;2023-05-23T06:17:51;102074.78;;;11.07;100.00
60015;BME280;45867;52.480;6.056;2023-05-23T06:20:17;102074.69;;;11.02;100.00
60015;BME280;45867;52.480;6.056;2023-05-23T06:22:42;102074.69;;;11.02;100.00
60015;BME280;45867;52.480;6.056;2023-05-23T06:25:08;102083.81;;;11.06;100.00
60015;BME280;45867;52.480;6.056;2023-05-23T06:27:33;102083.38;;;10.97;100.00
60015;BME280;45867;52.480;6.056;2023-05-23T06:29:58;102091.81;;;10.94;100.00
60015;BME280;45867;52.480;6.056;2023-05-23T06:32:24;102082.97;;;10.88;100.00
60015;BME280;45867;52.480;6.056;2023-05-23T06:34:49;102093.53;;;11.00;100.00
60015;BME280;45867;52.480;6.056;2023-05-23T06:37:15;102105.22;;;11.16;100.00
60015;BME280;45867;52.480;6.056;2023-05-23T06:39:41;102109.88;;;11.26;100.00
60015;BME280;45867;52.480;6.056;2023-05-23T06:42:06;102113.13;;;11.45;100.00
60015;BME280;45867;52.480;6.056;2023-05-23T06:44:32;102114.69;;;11.58;100.00
60015;BME280;45867;52.480;6.056;2023-05-23T06:46:57;102120.06;;;11.63;100.00
60015;BME280;45867;52.480;6.056;2023-05-23T06:49:23;102125.94;;;11.82;100.00
60015;BME280;45867;52.480;6.056;2023-05-23T06:51:49;102135.38;;;11.89;100.00
60015;BME280;45867;52.480;6.056;2023-05-23T06:54:15;102131.19;;;11.93;100.00
60015;BME280;45867;52.480;6.056;2023-05-23T06:56:40;102131.13;;;11.88;100.00
60015;BME280;45867;52.480;6.056;2023-05-23T06:59:06;102141.63;;;12.00;100.00
60015;BME280;45867;52.480;6.056;2023-05-23T07:01:31;102144.56;;;11.98;100.00
60015;BME280;45867;52.480;6.056;2023-05-23T07:03:56;102147.53;;;12.02;100.00
60015;BME280;45867;52.480;6.056;2023-05-23T07:06:22;102155.41;;;11.97;100.00
60015;BME280;45867;52.480;6.056;2023-05-23T07:08:47;102141.41;;;11.85;100.00
60015;BME280;45867;52.480;6.056;2023-05-23T07:11:12;102161.75;;;11.79;100.00
60015;BME280;45867;52.480;6.056;2023-05-23T07:13:38;102166.91;;;11.69;100.00
60015;BME280;45867;52.480;6.056;2023-05-23T07:16:03;102163.06;;;11.48;100.00
60015;BME280;45867;52.480;6.056;2023-05-23T07:18:29;102166.53;;;11.48;100.00
60015;BME280;45867;52.480;6.056;2023-05-23T07:20:54;102183.56;;;11.36;100.00
60015;BME280;45867;52.480;6.056;2023-05-23T07:23:21;102177.97;;;11.49;100.00
60015;BME280;45867;52.480;6.056;2023-05-23T07:25:47;102184.78;;;11.45;100.00
60015;BME280;45867;52.480;6.056;2023-05-23T07:28:12;102177.53;;;11.40;100.00
60015;BME280;45867;52.480;6.056;2023-05-23T07:30:38;102178.69;;;11.44;100.00
60015;BME280;45867;52.480;6.056;2023-05-23T07:33:03;102190.47;;;11.65;100.00
60015;BME280;45867;52.480;6.056;2023-05-23T07:35:28;102199.47;;;11.93;100.00
60015;BME280;45867;52.480;6.056;2023-05-23T07:37:54;102192.69;;;12.36;100.00
60015;BME280;45867;52.480;6.056;2023-05-23T07:40:20;102198.06;;;12.63;100.00
60015;BME280;45867;52.480;6.056;2023-05-23T07:42:46;102187.41;;;12.80;100.00
60015;BME280;45867;52.480;6.056;2023-05-23T07:45:11;102203.72;;;12.88;100.00
60015;BME280;45867;52.480;6.056;2023-05-23T07:47:37;102190.72;;;13.14;100.00
60015;BME280;45867;52.480;6.056;2023-05-23T07:50:03;102177.03;;;13.54;100.00
60015;BME280;45867;52.480;6.056;2023-05-23T07:52:28;102171.97;;;13.85;100.00
60015;BME280;45867;52.480;6.056;2023-05-23T07:54:54;102174.22;;;14.41;100.00
60015;BME280;45867;52.480;6.056;2023-05-23T07:57:20;102174.13;;;14.31;100.00
60015;BME280;45867;52.480;6.056;2023-05-23T07:59:45;102170.41;;;13.57;100.00
60015;BME280;45867;52.480;6.056;2023-05-23T08:02:11;102192.94;;;13.22;100.00
60015;BME280;45867;52.480;6.056;2023-05-23T08:04:36;102187.97;;;13.26;100.00
60015;BME280;45867;52.480;6.056;2023-05-23T08:07:01;102197.19;;;13.45;100.00
60015;BME280;45867;52.480;6.056;2023-05-23T08:09:29;102190.13;;;13.93;100.00
60015;BME280;45867;52.480;6.056;2023-05-23T08:11:54;102190.88;;;13.84;100.00
60015;BME280;45867;52.480;6.056;2023-05-23T08:14:19;102193.22;;;13.80;100.00
60015;BME280;45867;52.480;6.056;2023-05-23T08:16:45;102195.56;;;13.71;100.00
60015;BME280;45867;52.480;6.056;2023-05-23T08:19:11;102203.22;;;13.36;100.00
60015;BME280;45867;52.480;6.056;2023-05-23T08:21:36;102200.56;;;13.36;100.00
60015;BME280;45867;52.480;6.056;2023-05-23T08:24:01;102208.94;;;13.49;100.00
60015;BME280;45867;52.480;6.056;2023-05-23T08:26:27;102207.56;;;13.74;100.00
60015;BME280;45867;52.480;6.056;2023-05-23T08:28:59;102208.59;;;14.00;100.00
60015;BME280;45867;52.480;6.056;2023-05-23T08:31:24;102215.38;;;13.86;100.00
60015;BME280;45867;52.480;6.056;2023-05-23T08:33:51;102229.63;;;13.69;100.00
60015;BME280;45867;52.480;6.056;2023-05-23T08:36:16;102231.44;;;13.91;100.00
60015;BME280;45867;52.480;6.056;2023-05-23T08:38:42;102228.63;;;14.93;100.00
60015;BME280;45867;52.480;6.056;2023-05-23T08:41:15;102230.19;;;16.08;100.00
60015;BME280;45867;52.480;6.056;2023-05-23T08:43:42;102235.50;;;16.33;100.00
60015;BME280;45867;52.480;6.056;2023-05-23T08:46:07;102239.50;;;16.46;100.00
60015;BME280;45867;52.480;6.056;2023-05-23T08:48:33;102244.91;;;15.80;100.00
60015;BME280;45867;52.480;6.056;2023-05-23T08:51:00;102239.59;;;14.96;100.00
60015;BME280;45867;52.480;6.056;2023-05-23T08:53:27;102240.41;;;15.02;100.00
60015;BME280;45867;52.480;6.056;2023-05-23T08:55:53;102240.00;;;15.41;100.00
60015;BME280;45867;52.480;6.056;2023-05-23T08:58:20;102240.97;;;16.98;100.00
60015;BME280;45867;52.480;6.056;2023-05-23T09:00:46;102249.69;;;18.32;100.00
60015;BME280;45867;52.480;6.056;2023-05-23T09:03:12;102246.00;;;18.52;100.00
60015;BME280;45867;52.480;6.056;2023-05-23T09:05:38;102233.81;;;19.08;100.00
60015;BME280;45867;52.480;6.056;2023-05-23T09:08:04;102258.19;;;18.93;100.00
60015;BME280;45867;52.480;6.056;2023-05-23T09:10:29;102256.59;;;19.54;100.00
60015;BME280;45867;52.480;6.056;2023-05-23T09:12:55;102265.13;;;19.56;100.00
60015;BME280;45867;52.480;6.056;2023-05-23T09:15:20;102268.69;;;18.65;100.00
60015;BME280;45867;52.480;6.056;2023-05-23T09:17:48;102267.19;;;18.01;100.00
60015;BME280;45867;52.480;6.056;2023-05-23T09:20:14;102277.25;;;18.43;100.00
60015;BME280;45867;52.480;6.056;2023-05-23T09:22:43;102272.06;;;19.24;100.00
60015;BME280;45867;52.480;6.056;2023-05-23T09:25:09;102280.91;;;18.52;100.00
60015;BME280;45867;52.480;6.056;2023-05-23T09:27:35;102277.63;;;18.31;100.00
60015;BME280;45867;52.480;6.056;2023-05-23T09:30:07;102277.34;;;19.10;100.00
60015;BME280;45867;52.480;6.056;2023-05-23T09:32:33;102271.56;;;20.11;100.00
60015;BME280;45867;52.480;6.056;2023-05-23T09:35:00;102290.28;;;20.49;100.00
60015;BME280;45867;52.480;6.056;2023-05-23T09:37:33;102296.41;;;19.70;100.00
60015;BME280;45867;52.480;6.056;2023-05-23T09:40:00;102293.50;;;19.67;100.00
60015;BME280;45867;52.480;6.056;2023-05-23T09:42:31;102277.72;;;19.79;100.00
60015;BME280;45867;52.480;6.056;2023-05-23T09:44:58;102287.16;;;20.42;94.90
60015;BME280;45867;52.480;6.056;2023-05-23T09:47:24;102293.38;;;20.70;96.48
60015;BME280;45867;52.480;6.056;2023-05-23T09:49:50;102298.50;;;20.58;93.43
60015;BME280;45867;52.480;6.056;2023-05-23T09:52:15;102295.69;;;20.63;88.43
60015;BME280;45867;52.480;6.056;2023-05-23T09:54:42;102288.41;;;19.46;91.63
60015;BME280;45867;52.480;6.056;2023-05-23T09:57:10;102304.97;;;18.62;100.00
60015;BME280;45867;52.480;6.056;2023-05-23T09:59:40;102305.44;;;17.67;100.00
60015;BME280;45867;52.480;6.056;2023-05-23T10:02:10;102299.31;;;17.12;100.00
60015;BME280;45867;52.480;6.056;2023-05-23T10:04:38;102292.41;;;16.90;100.00
60015;BME280;45867;52.480;6.056;2023-05-23T10:07:11;102300.50;;;16.59;100.00
60015;BME280;45867;52.480;6.056;2023-05-23T10:09:39;102296.19;;;16.63;100.00
60015;BME280;45867;52.480;6.056;2023-05-23T10:14:57;102290.72;;;19.91;100.00
60015;BME280;45867;52.480;6.056;2023-05-23T10:17:30;102295.91;;;20.20;100.00
60015;BME280;45867;52.480;6.056;2023-05-23T10:20:00;102288.69;;;20.76;100.00
60015;BME280;45867;52.480;6.056;2023-05-23T10:22:33;102306.78;;;20.29;98.84
60015;BME280;45867;52.480;6.056;2023-05-23T10:24:58;102298.44;;;19.60;100.00
60015;BME280;45867;52.480;6.056;2023-05-23T10:27:24;102303.47;;;20.18;100.00
60015;BME280;45867;52.480;6.056;2023-05-23T10:29:50;102304.16;;;19.53;100.00
60015;BME280;45867;52.480;6.056;2023-05-23T10:32:16;102311.81;;;19.84;97.76
60015;BME280;45867;52.480;6.056;2023-05-23T10:37:23;102311.84;;;18.15;100.00
60015;BME280;45867;52.480;6.056;2023-05-23T10:40:00;102311.16;;;18.34;100.00
60015;BME280;45867;52.480;6.056;2023-05-23T10:45:17;102326.34;;;18.73;100.00
60015;BME280;45867;52.480;6.056;2023-05-23T10:47:47;102329.34;;;19.19;100.00
60015;BME280;45867;52.480;6.056;2023-05-23T10:50:15;102316.66;;;18.77;98.30
60015;BME280;45867;52.480;6.056;2023-05-23T10:52:41;102316.53;;;19.92;100.00
60015;BME280;45867;52.480;6.056;2023-05-23T10:55:14;102320.38;;;21.62;87.73
60015;BME280;45867;52.480;6.056;2023-05-23T10:57:42;102312.47;;;22.33;79.49
60015;BME280;45867;52.480;6.056;2023-05-23T11:00:13;102316.09;;;21.47;81.99
60015;BME280;45867;52.480;6.056;2023-05-23T11:02:46;102319.66;;;20.46;80.90
60015;BME280;45867;52.480;6.056;2023-05-23T11:08:06;102331.50;;;18.93;96.58
60015;BME280;45867;52.480;6.056;2023-05-23T11:10:32;102335.00;;;18.35;100.00
60015;BME280;45867;52.480;6.056;2023-05-23T11:13:05;102335.69;;;18.80;100.00
60015;BME280;45867;52.480;6.056;2023-05-23T11:15:41;102316.41;;;18.73;98.52
60015;BME280;45867;52.480;6.056;2023-05-23T11:18:07;102332.06;;;19.57;96.24
60015;BME280;45867;52.480;6.056;2023-05-23T11:20:32;102335.41;;;18.82;92.50
60015;BME280;45867;52.480;6.056;2023-05-23T11:23:01;102332.50;;;17.70;100.00
60015;BME280;45867;52.480;6.056;2023-05-23T11:25:42;102327.50;;;16.83;100.00
60015;BME280;45867;52.480;6.056;2023-05-23T11:28:12;102333.66;;;16.63;100.00
60015;BME280;45867;52.480;6.056;2023-05-23T11:30:37;102329.88;;;16.75;100.00
60015;BME280;45867;52.480;6.056;2023-05-23T11:33:08;102335.56;;;16.83;100.00
60015;BME280;45867;52.480;6.056;2023-05-23T11:35:36;102333.44;;;17.45;100.00
60015;BME280;45867;52.480;6.056;2023-05-23T11:38:03;102333.44;;;17.45;100.00
60015;BME280;45867;52.480;6.056;2023-05-23T11:40:39;102347.81;;;18.44;100.00
60015;BME280;45867;52.480;6.056;2023-05-23T11:43:07;102345.28;;;18.87;100.00
60015;BME280;45867;52.480;6.056;2023-05-23T11:45:34;102338.44;;;19.42;100.00
60015;BME280;45867;52.480;6.056;2023-05-23T11:48:09;102336.50;;;19.48;98.51
60015;BME280;45867;52.480;6.056;2023-05-23T11:50:49;102328.66;;;18.26;98.77
60015;BME280;45867;52.480;6.056;2023-05-23T11:53:16;102337.97;;;17.55;100.00
60015;BME280;45867;52.480;6.056;2023-05-23T11:55:56;102336.75;;;17.27;100.00
60015;BME280;45867;52.480;6.056;2023-05-23T11:58:28;102336.78;;;17.82;100.00
60015;BME280;45867;52.480;6.056;2023-05-23T12:01:00;102342.22;;;18.06;100.00
60015;BME280;45867;52.480;6.056;2023-05-23T12:03:26;102334.34;;;17.80;100.00
60015;BME280;45867;52.480;6.056;2023-05-23T12:05:53;102338.75;;;16.55;100.00
60015;BME280;45867;52.480;6.056;2023-05-23T12:08:19;102334.44;;;16.69;100.00
60015;BME280;45867;52.480;6.056;2023-05-23T12:10:52;102327.94;;;17.16;100.00
60015;BME280;45867;52.480;6.056;2023-05-23T12:13:19;102337.38;;;18.42;100.00
60015;BME280;45867;52.480;6.056;2023-05-23T12:15:44;102336.75;;;18.21;100.00
60015;BME280;45867;52.480;6.056;2023-05-23T12:18:11;102329.53;;;18.80;100.00
60015;BME280;45867;52.480;6.056;2023-05-23T12:20:36;102330.00;;;19.73;100.00
60015;BME280;45867;52.480;6.056;2023-05-23T12:23:05;102334.16;;;18.40;100.00
60015;BME280;45867;52.480;6.056;2023-05-23T12:25:40;102360.16;;;17.66;100.00
60015;BME280;45867;52.480;6.056;2023-05-23T12:28:06;102352.25;;;17.35;100.00
60015;BME280;45867;52.480;6.056;2023-05-23T12:30:40;102362.53;;;18.51;100.00
60015;BME280;45867;52.480;6.056;2023-05-23T12:33:09;102349.19;;;19.42;100.00
60015;BME280;45867;52.480;6.056;2023-05-23T12:35:36;102344.50;;;18.86;97.14
60015;BME280;45867;52.480;6.056;2023-05-23T12:38:01;102355.00;;;17.74;100.00
60015;BME280;45867;52.480;6.056;2023-05-23T12:40:27;102361.22;;;17.65;100.00
60015;BME280;45867;52.480;6.056;2023-05-23T12:42:56;102364.19;;;17.58;100.00
60015;BME280;45867;52.480;6.056;2023-05-23T12:45:23;102349.66;;;19.49;100.00
60015;BME280;45867;52.480;6.056;2023-05-23T12:47:48;102355.66;;;20.36;87.94
60015;BME280;45867;52.480;6.056;2023-05-23T12:50:14;102360.94;;;18.79;90.09
60015;BME280;45867;52.480;6.056;2023-05-23T12:52:39;102368.09;;;17.86;99.42
60015;BME280;45867;52.480;6.056;2023-05-23T12:55:06;102355.19;;;17.39;100.00
60015;BME280;45867;52.480;6.056;2023-05-23T12:57:33;102366.31;;;17.66;100.00
60015;BME280;45867;52.480;6.056;2023-05-23T12:59:58;102357.56;;;17.40;100.00